Time;durP1;ratioP1;P1;durP2;ratioP2;P2;SDS_P1;SDS_P2;PMS_P1;PMS_P2;Temp;Humidity;BMP_temperature;BMP_pressure;BME280_temperature;BME280_humidity;BME280_pressure;Samples;Min_cycle;Max_cycle;Signal;HPM_P1;HPM_P2
2023/02/28 00:01:28;;;;;;;7.87;1.80;;;-0.60;99.90;;;;;;4980613;28;20042;-66
2023/02/28 00:03:54;;;;;;;6.33;2.20;;;-0.60;99.90;;;;;;5009839;28;20036;-65
2023/02/28 00:06:20;;;;;;;7.53;1.73;;;-0.60;99.90;;;;;;5015369;28;20132;-65
2023/02/28 00:08:46;;;;;;;2.77;1.70;;;-0.60;99.90;;;;;;5014815;28;20022;-65
2023/02/28 00:11:14;;;;;;;10.07;2.20;;;-0.60;99.90;;;;;;5009193;28;20026;-66
2023/02/28 00:13:42;;;;;;;6.40;1.97;;;-0.60;99.90;;;;;;5010622;28;20025;-65
2023/02/28 00:16:13;;;;;;;4.40;1.60;;;-0.60;99.90;;;;;;5011539;28;20108;-65
2023/02/28 00:18:39;;;;;;;8.30;2.27;;;-0.60;99.90;;;;;;5019720;28;20089;-65
2023/02/28 00:21:06;;;;;;;4.97;2.17;;;-0.60;99.90;;;;;;5008795;28;20030;-65
2023/02/28 00:23:31;;;;;;;4.97;1.67;;;-0.60;99.90;;;;;;5019581;28;20033;-65
2023/02/28 00:25:57;;;;;;;5.07;2.10;;;-0.70;99.90;;;;;;5006914;28;20707;-65
2023/02/28 00:28:23;;;;;;;4.43;1.80;;;-0.70;99.90;;;;;;5014351;28;20030;-66
2023/02/28 00:30:49;;;;;;;5.20;2.10;;;-0.70;99.90;;;;;;5010926;28;20370;-64
2023/02/28 00:33:15;;;;;;;2.33;1.30;;;-0.80;99.90;;;;;;5007693;28;20048;-65
2023/02/28 00:35:40;;;;;;;7.40;1.80;;;-0.70;99.90;;;;;;5018532;28;20028;-65
2023/02/28 00:38:06;;;;;;;4.10;2.10;;;-0.80;99.90;;;;;;5006708;28;20030;-66
2023/02/28 00:40:32;;;;;;;3.07;1.87;;;-0.90;99.90;;;;;;5005135;28;20516;-66
2023/02/28 00:42:57;;;;;;;3.03;1.70;;;-0.90;99.90;;;;;;5002893;28;20780;-66
2023/02/28 00:45:23;;;;;;;2.53;1.53;;;-0.90;99.90;;;;;;5004137;28;20068;-66
2023/02/28 00:47:49;;;;;;;4.37;1.70;;;-0.90;99.90;;;;;;5006073;28;20404;-65
2023/02/28 00:50:19;;;;;;;3.07;1.43;;;-0.90;99.90;;;;;;5014758;28;20452;-65
2023/02/28 00:52:45;;;;;;;6.23;1.30;;;-0.90;99.90;;;;;;5016471;28;20026;-66
2023/02/28 00:55:11;;;;;;;7.17;2.47;;;-1.00;99.90;;;;;;5017965;28;20104;-66
2023/02/28 00:57:37;;;;;;;5.00;1.70;;;-0.90;99.90;;;;;;5016764;28;20050;-65
2023/02/28 01:00:04;;;;;;;3.00;1.70;;;-0.90;99.90;;;;;;5021772;28;20026;-67
2023/02/28 01:02:29;;;;;;;2.70;1.57;;;-0.90;99.90;;;;;;4995252;28;20097;-65
2023/02/28 01:04:56;;;;;;;3.73;1.30;;;-0.90;99.90;;;;;;5006072;28;20382;-65
2023/02/28 01:07:22;;;;;;;5.23;1.63;;;-1.00;99.90;;;;;;5006404;28;20025;-68
2023/02/28 01:09:48;;;;;;;2.07;1.20;;;-0.90;99.90;;;;;;5009506;28;20032;-68
2023/02/28 01:12:13;;;;;;;2.30;1.37;;;-1.00;99.90;;;;;;5009126;28;20475;-68
2023/02/28 01:14:39;;;;;;;6.20;2.40;;;-1.00;99.90;;;;;;5005828;28;20030;-68
2023/02/28 01:17:05;;;;;;;3.97;1.50;;;-1.00;99.90;;;;;;5007530;28;20392;-66
2023/02/28 01:19:30;;;;;;;6.47;1.93;;;-1.00;99.90;;;;;;5010685;28;20026;-65
2023/02/28 01:21:56;;;;;;;2.23;1.73;;;-1.00;99.90;;;;;;5006802;28;20509;-66
2023/02/28 01:24:21;;;;;;;3.30;1.23;;;-1.00;99.90;;;;;;5011182;28;20404;-65
2023/02/28 01:26:47;;;;;;;7.10;1.70;;;-1.00;99.90;;;;;;5005787;28;20038;-65
2023/02/28 01:29:12;;;;;;;7.57;2.40;;;-1.10;99.90;;;;;;5004389;28;20114;-66
2023/02/28 01:31:38;;;;;;;3.43;1.33;;;-1.00;99.90;;;;;;5015831;28;20088;-66
2023/02/28 01:34:04;;;;;;;4.57;1.90;;;-1.00;99.90;;;;;;5007656;28;20041;-66
2023/02/28 01:36:30;;;;;;;3.50;1.73;;;-1.00;99.90;;;;;;5013907;28;20038;-65
2023/02/28 01:38:56;;;;;;;3.23;1.70;;;-1.10;99.90;;;;;;5014477;28;20121;-66
2023/02/28 01:41:27;;;;;;;4.97;1.67;;;-1.10;99.90;;;;;;5008333;28;20440;-65
2023/02/28 01:43:56;;;;;;;4.47;1.97;;;-1.10;99.90;;;;;;5007963;28;20771;-66
2023/02/28 01:46:22;;;;;;;7.27;2.40;;;-1.10;99.90;;;;;;5010008;28;20040;-66
2023/02/28 01:48:50;;;;;;;4.67;1.70;;;-1.10;99.90;;;;;;5006250;28;20037;-66
2023/02/28 01:51:45;;;;;;;2.50;1.00;;;-1.10;99.90;;;;;;4994436;28;20018;-65
2023/02/28 01:54:15;;;;;;;2.97;1.85;;;-1.10;99.90;;;;;;5002204;28;20049;-67
2023/02/28 01:56:47;;;;;;;5.57;1.43;;;-1.10;99.90;;;;;;5000592;28;20105;-65
2023/02/28 01:59:21;;;;;;;2.90;1.30;;;-1.10;99.90;;;;;;5004495;28;20056;-67
2023/02/28 02:01:47;;;;;;;4.27;1.77;;;-1.10;99.90;;;;;;4991810;28;20050;-66
2023/02/28 02:04:13;;;;;;;3.77;1.30;;;-1.10;99.90;;;;;;5012421;28;20092;-66
2023/02/28 02:06:44;;;;;;;2.47;1.40;;;-1.10;99.90;;;;;;4994799;28;20025;-66
2023/02/28 02:09:10;;;;;;;5.30;1.57;;;-1.10;99.90;;;;;;5002814;28;20037;-67
2023/02/28 02:11:36;;;;;;;1.93;1.20;;;-1.10;99.90;;;;;;4999720;28;20657;-67
2023/02/28 02:14:37;;;;;;;4.47;1.70;;;-1.20;99.90;;;;;;5006416;28;20053;-67
2023/02/28 02:17:02;;;;;;;4.20;1.60;;;-1.20;99.90;;;;;;4999615;28;20516;-67
2023/02/28 02:19:46;;;;;;;3.13;1.80;;;-1.20;99.90;;;;;;5007793;28;20108;-66
2023/02/28 02:22:43;;;;;;;2.78;1.08;;;-1.30;99.90;;;;;;5005075;28;20037;-66
2023/02/28 02:25:40;;;;;;;4.67;1.50;;;-1.30;99.90;;;;;;5002332;28;20088;-66
2023/02/28 02:28:46;;;;;;;3.73;1.67;;;-1.30;99.90;;;;;;5002658;28;20080;-66
2023/02/28 02:31:37;;;;;;;3.90;1.33;;;-1.30;99.90;;;;;;5002570;28;20026;-66
2023/02/28 02:34:40;;;;;;;6.30;1.57;;;-1.40;99.90;;;;;;5024047;28;20029;-67
2023/02/28 02:37:15;;;;;;;3.80;1.27;;;-1.40;99.90;;;;;;5006825;28;20022;-67
2023/02/28 02:40:05;;;;;;;6.90;1.53;;;-1.40;99.90;;;;;;4997266;28;20559;-67
2023/02/28 02:42:55;;;;;;;5.97;1.23;;;-1.50;99.90;;;;;;5006279;28;20515;-66
2023/02/28 02:45:43;;;;;;;2.67;1.40;;;-1.50;99.90;;;;;;4995100;28;20034;-67
2023/02/28 02:48:13;;;;;;;2.47;1.17;;;-1.40;99.90;;;;;;5004238;28;20068;-65
2023/02/28 02:50:52;;;;;;;4.13;1.40;;;-1.40;99.90;;;;;;4996818;28;20064;-66
2023/02/28 02:53:23;;;;;;;2.20;1.70;;;-1.40;99.90;;;;;;5007650;28;20018;-67
2023/02/28 02:55:54;;;;;;;3.33;1.63;;;-1.40;99.90;;;;;;5017842;28;20078;-65
2023/02/28 02:58:24;;;;;;;3.60;1.50;;;-1.40;99.90;;;;;;5009717;28;20033;-66
2023/02/28 03:00:53;;;;;;;6.07;1.30;;;-1.40;99.90;;;;;;5008610;28;20034;-65
2023/02/28 03:03:28;;;;;;;2.90;1.37;;;-1.30;99.90;;;;;;4984182;28;20811;-66
2023/02/28 03:05:54;;;;;;;2.27;1.30;;;-1.40;99.90;;;;;;4989014;28;20054;-66
2023/02/28 03:08:20;;;;;;;2.70;1.50;;;-1.40;99.90;;;;;;5008314;28;20109;-66
2023/02/28 03:10:49;;;;;;;3.40;1.50;;;-1.40;99.90;;;;;;5001655;28;20104;-67
2023/02/28 03:13:15;;;;;;;4.80;1.50;;;-1.40;99.90;;;;;;5009563;28;20374;-66
2023/02/28 03:16:12;;;;;;;3.73;1.20;;;-1.50;99.90;;;;;;5007318;28;20026;-67
2023/02/28 03:18:47;;;;;;;3.50;1.20;;;-1.50;99.90;;;;;;5005529;28;20050;-66
2023/02/28 03:21:22;;;;;;;2.07;1.17;;;-1.40;99.90;;;;;;5021653;28;20026;-66
2023/02/28 03:23:58;;;;;;;2.17;1.30;;;-1.40;99.90;;;;;;4985192;28;20065;-66
2023/02/28 03:26:27;;;;;;;1.80;1.00;;;-1.50;99.90;;;;;;5001332;28;20541;-67
2023/02/28 03:29:12;;;;;;;4.93;1.50;;;-1.50;99.90;;;;;;5001458;28;20026;-65
2023/02/28 03:31:44;;;;;;;2.17;1.00;;;-1.40;99.90;;;;;;5009198;28;20049;-65
2023/02/28 03:34:21;;;;;;;2.90;1.40;;;-1.50;99.90;;;;;;5020790;28;20014;-66
2023/02/28 03:36:51;;;;;;;3.90;1.37;;;-1.50;99.90;;;;;;5009484;28;20041;-66
2023/02/28 03:39:22;;;;;;;1.90;1.43;;;-1.60;99.90;;;;;;5023304;28;20021;-66
2023/02/28 03:41:59;;;;;;;4.63;1.30;;;-1.60;99.90;;;;;;5012548;28;20531;-65
2023/02/28 03:44:32;;;;;;;2.30;1.20;;;-1.50;99.90;;;;;;5029187;28;20427;-65
2023/02/28 03:47:03;;;;;;;3.37;1.40;;;-1.50;99.90;;;;;;5005732;28;20048;-66
2023/02/28 03:49:43;;;;;;;2.20;1.20;;;-1.50;99.90;;;;;;5010142;28;20700;-66
2023/02/28 03:52:08;;;;;;;3.27;1.10;;;-1.50;99.90;;;;;;5001436;28;20084;-66
2023/02/28 03:54:42;;;;;;;3.27;1.57;;;-1.60;99.90;;;;;;4990461;28;20034;-66
2023/02/28 03:57:26;;;;;;;5.05;1.73;;;-1.50;99.90;;;;;;5015616;28;20503;-66
2023/02/28 04:00:05;;;;;;;2.53;1.55;;;-1.60;99.90;;;;;;5023631;28;20048;-67
2023/02/28 04:02:31;;;;;;;6.13;1.10;;;-1.70;99.90;;;;;;5000022;28;20421;-65
2023/02/28 04:04:57;;;;;;;3.93;1.20;;;-1.70;99.90;;;;;;5034341;28;20036;-66
2023/02/28 04:07:22;;;;;;;2.43;1.17;;;-1.80;99.90;;;;;;5030656;28;20022;-66
2023/02/28 04:09:48;;;;;;;2.60;2.00;;;-1.90;99.90;;;;;;5032717;28;20087;-66
2023/02/28 04:12:14;;;;;;;2.73;1.20;;;-1.90;99.90;;;;;;5029839;28;20025;-67
2023/02/28 04:14:39;;;;;;;2.23;1.20;;;-1.90;99.90;;;;;;5031008;28;20136;-65
2023/02/28 04:17:05;;;;;;;4.93;1.63;;;-2.00;99.90;;;;;;5013819;28;20399;-66
2023/02/28 04:19:30;;;;;;;2.93;1.37;;;-2.00;99.90;;;;;;5033790;28;20036;-66
2023/02/28 04:21:56;;;;;;;2.17;1.23;;;-2.00;99.90;;;;;;5031312;28;20415;-66
2023/02/28 04:24:25;;;;;;;3.30;1.30;;;-2.00;99.90;;;;;;5031155;28;20053;-66
2023/02/28 04:26:53;;;;;;;3.30;1.20;;;-1.90;99.90;;;;;;5022168;28;20041;-66
2023/02/28 04:29:25;;;;;;;0.87;0.80;;;-1.90;99.90;;;;;;5028635;28;20113;-66
2023/02/28 04:31:52;;;;;;;5.47;1.67;;;-1.90;99.90;;;;;;5023121;28;20041;-66
2023/02/28 04:34:19;;;;;;;2.03;1.20;;;-1.90;99.90;;;;;;5028416;28;20029;-66
2023/02/28 04:36:45;;;;;;;3.23;1.20;;;-1.90;99.90;;;;;;5031507;28;20029;-66
2023/02/28 04:39:11;;;;;;;2.30;1.20;;;-1.90;99.90;;;;;;5012778;28;20128;-66
2023/02/28 04:41:37;;;;;;;3.20;1.70;;;-1.90;99.90;;;;;;5023750;28;20571;-66
2023/02/28 04:44:03;;;;;;;2.63;1.40;;;-1.90;99.90;;;;;;5029132;28;20045;-66
2023/02/28 04:46:28;;;;;;;2.43;1.30;;;-1.90;99.90;;;;;;5024307;28;20104;-66
2023/02/28 04:48:54;;;;;;;3.93;1.60;;;-1.90;99.90;;;;;;5031039;28;20052;-66
2023/02/28 04:51:20;;;;;;;1.70;1.10;;;-2.00;99.90;;;;;;5027254;28;20443;-67
2023/02/28 04:53:47;;;;;;;3.27;1.60;;;-2.00;99.90;;;;;;5029620;28;20028;-66
2023/02/28 04:56:15;;;;;;;5.13;1.70;;;-2.00;99.90;;;;;;5029078;28;20443;-65
2023/02/28 04:58:42;;;;;;;3.90;1.30;;;-2.00;99.90;;;;;;5012457;28;20040;-66
2023/02/28 05:01:29;;;;;;;1.67;1.20;;;-2.00;99.90;;;;;;5029758;28;20105;-65
2023/02/28 05:03:58;;;;;;;3.67;1.80;;;-2.00;99.90;;;;;;4986248;28;20879;-66
2023/02/28 05:06:26;;;;;;;2.67;1.40;;;-2.00;99.90;;;;;;5029407;28;20488;-66
2023/02/28 05:08:52;;;;;;;2.97;1.60;;;-2.00;99.90;;;;;;5010666;28;20041;-65
2023/02/28 05:11:22;;;;;;;5.23;2.00;;;-2.00;99.90;;;;;;5024831;28;20092;-67
2023/02/28 05:13:48;;;;;;;9.40;2.10;;;-2.00;99.90;;;;;;5027278;28;20057;-65
2023/02/28 05:16:15;;;;;;;5.63;2.40;;;-2.00;99.90;;;;;;5030286;28;20059;-66
2023/02/28 05:18:40;;;;;;;4.23;2.07;;;-2.00;99.90;;;;;;5029728;28;20079;-66
2023/02/28 05:21:23;;;;;;;3.10;1.73;;;-2.00;99.90;;;;;;5028633;28;20034;-65
2023/02/28 05:23:49;;;;;;;4.87;1.90;;;-1.90;99.90;;;;;;5027607;28;20667;-65
2023/02/28 05:26:14;;;;;;;6.70;1.83;;;-2.00;99.90;;;;;;5026223;28;20064;-65
2023/02/28 05:28:40;;;;;;;5.90;1.80;;;-1.90;99.90;;;;;;5026149;28;20383;-66
2023/02/28 05:31:05;;;;;;;3.07;1.53;;;-1.90;99.90;;;;;;5026708;28;20080;-66
2023/02/28 05:33:31;;;;;;;4.00;1.83;;;-2.00;99.90;;;;;;5026483;28;20033;-66
2023/02/28 05:35:56;;;;;;;3.57;1.93;;;-2.00;99.90;;;;;;5018447;28;20579;-66
2023/02/28 05:38:22;;;;;;;7.03;3.40;;;-1.90;99.90;;;;;;5006887;28;20385;-66
2023/02/28 05:40:47;;;;;;;10.43;3.53;;;-1.90;99.90;;;;;;5020060;28;20025;-66
2023/02/28 05:43:13;;;;;;;5.10;2.50;;;-2.00;99.90;;;;;;5022928;28;20030;-65
2023/02/28 05:45:39;;;;;;;6.83;3.07;;;-2.00;99.90;;;;;;5026390;28;20108;-66
2023/02/28 05:48:04;;;;;;;6.37;3.13;;;-2.00;99.90;;;;;;5028055;28;20033;-66
2023/02/28 05:50:30;;;;;;;5.10;2.73;;;-2.00;99.90;;;;;;5026871;28;20017;-66
2023/02/28 05:52:56;;;;;;;5.43;2.33;;;-2.00;99.90;;;;;;5009108;28;20388;-66
2023/02/28 05:55:21;;;;;;;3.53;2.00;;;-2.00;99.90;;;;;;5026848;28;20083;-65
2023/02/28 05:57:47;;;;;;;3.20;2.20;;;-2.00;99.90;;;;;;5009748;28;20049;-66
2023/02/28 06:00:14;;;;;;;4.07;2.20;;;-2.10;99.90;;;;;;5031005;28;20112;-65
2023/02/28 06:02:40;;;;;;;12.63;5.10;;;-2.10;99.90;;;;;;5006001;28;20091;-65
2023/02/28 06:05:13;;;;;;;62.53;21.47;;;-2.10;99.90;;;;;;4992116;28;20042;-66
2023/02/28 06:07:39;;;;;;;8.23;4.75;;;-2.20;99.90;;;;;;5006744;28;20042;-66
2023/02/28 06:10:05;;;;;;;10.13;4.17;;;-2.20;99.90;;;;;;5007483;28;20103;-66
2023/02/28 06:12:31;;;;;;;9.53;3.67;;;-2.20;99.90;;;;;;5006952;28;20021;-67
2023/02/28 06:14:56;;;;;;;9.90;4.43;;;-2.20;99.90;;;;;;4994384;28;20056;-65
2023/02/28 06:17:22;;;;;;;7.73;2.17;;;-2.10;99.90;;;;;;4992215;28;20049;-66
2023/02/28 06:19:47;;;;;;;3.63;1.67;;;-2.10;99.90;;;;;;5011011;28;20034;-65
2023/02/28 06:22:13;;;;;;;10.17;2.23;;;-2.10;99.90;;;;;;4987913;28;20049;-65
2023/02/28 06:24:39;;;;;;;3.47;1.70;;;-2.10;99.90;;;;;;4992440;28;20112;-65
2023/02/28 06:27:05;;;;;;;9.03;1.83;;;-2.10;99.90;;;;;;5005612;28;20029;-65
2023/02/28 06:29:32;;;;;;;5.30;2.20;;;-2.10;99.90;;;;;;4985750;28;20026;-66
2023/02/28 06:31:58;;;;;;;5.77;3.33;;;-2.20;99.90;;;;;;4990819;28;20140;-64
2023/02/28 06:34:23;;;;;;;3.77;1.70;;;-2.20;99.90;;;;;;5007676;28;20504;-65
2023/02/28 06:36:51;;;;;;;10.50;1.90;;;-2.10;99.90;;;;;;5010788;28;20033;-66
2023/02/28 06:39:17;;;;;;;5.20;1.60;;;-2.10;99.90;;;;;;5011075;28;20021;-64
2023/02/28 06:41:45;;;;;;;6.20;2.07;;;-2.00;99.90;;;;;;5006972;28;20041;-66
2023/02/28 06:44:14;;;;;;;2.97;1.43;;;-2.00;99.90;;;;;;4993056;28;20489;-66
2023/02/28 06:46:44;;;;;;;1.47;1.00;;;-2.00;99.90;;;;;;5008116;28;20105;-66
2023/02/28 06:49:10;;;;;;;3.70;1.43;;;-1.90;99.90;;;;;;5007115;28;20026;-65
2023/02/28 06:51:38;;;;;;;3.63;1.80;;;-1.90;99.90;;;;;;5003511;28;20025;-65
2023/02/28 06:54:04;;;;;;;2.87;1.57;;;-1.90;99.90;;;;;;5002440;28;20497;-65
2023/02/28 06:56:30;;;;;;;3.07;1.50;;;-1.80;99.90;;;;;;5000654;28;20033;-65
2023/02/28 06:58:56;;;;;;;1.93;1.27;;;-1.80;99.90;;;;;;5008450;28;20036;-66
2023/02/28 07:01:24;;;;;;;4.37;1.93;;;-1.80;99.90;;;;;;4999925;28;20025;-66
2023/02/28 07:03:52;;;;;;;10.57;2.70;;;-1.80;99.90;;;;;;4976575;28;20125;-66
2023/02/28 07:06:19;;;;;;;6.60;1.67;;;-1.70;99.90;;;;;;5005080;28;20077;-65
2023/02/28 07:08:45;;;;;;;4.93;2.20;;;-1.70;99.90;;;;;;5002403;28;20044;-66
2023/02/28 07:11:11;;;;;;;5.27;2.77;;;-1.70;99.90;;;;;;5001163;28;20393;-65
2023/02/28 07:13:37;;;;;;;3.27;1.80;;;-1.60;99.90;;;;;;5002417;28;20030;-66
2023/02/28 07:16:05;;;;;;;4.00;2.13;;;-1.50;99.90;;;;;;5007158;28;20109;-66
2023/02/28 07:18:31;;;;;;;4.57;1.73;;;-1.50;99.90;;;;;;5003580;28;20045;-65
2023/02/28 07:20:57;;;;;;;4.03;1.43;;;-1.40;99.90;;;;;;5004532;28;20033;-66
2023/02/28 07:23:23;;;;;;;3.67;1.53;;;-1.30;99.90;;;;;;5007393;28;20409;-65
2023/02/28 07:25:50;;;;;;;3.73;2.20;;;-1.20;99.90;;;;;;5005637;28;20066;-64
2023/02/28 07:28:16;;;;;;;3.70;1.83;;;-1.10;99.90;;;;;;5003111;28;20040;-66
2023/02/28 07:30:42;;;;;;;5.33;1.73;;;-1.10;99.90;;;;;;5006233;28;20022;-66
2023/02/28 07:33:08;;;;;;;4.47;1.50;;;-1.00;99.90;;;;;;5007751;28;20026;-66
2023/02/28 07:35:33;;;;;;;5.03;1.23;;;-1.00;99.90;;;;;;5006663;28;20088;-65
2023/02/28 07:37:59;;;;;;;3.37;1.73;;;-0.90;99.90;;;;;;5007986;28;20034;-65
2023/02/28 07:40:25;;;;;;;5.40;1.73;;;-0.80;99.90;;;;;;5007405;28;20026;-66
2023/02/28 07:42:51;;;;;;;5.37;1.77;;;-0.80;99.90;;;;;;5005290;28;20088;-65
2023/02/28 07:45:17;;;;;;;2.13;1.20;;;-0.70;99.90;;;;;;5005177;28;20029;-64
2023/02/28 07:47:43;;;;;;;4.73;1.40;;;-0.60;99.90;;;;;;4999962;28;20033;-64
2023/02/28 07:50:11;;;;;;;5.83;1.30;;;-0.60;99.90;;;;;;5004553;28;20030;-66
2023/02/28 07:52:38;;;;;;;8.47;1.90;;;-0.50;99.90;;;;;;5008261;28;20486;-66
2023/02/28 07:55:05;;;;;;;2.40;1.30;;;-0.40;99.90;;;;;;5007351;28;20033;-65
2023/02/28 07:57:31;;;;;;;4.23;1.57;;;-0.40;99.90;;;;;;5004863;28;20621;-65
2023/02/28 07:59:57;;;;;;;4.03;1.80;;;-0.30;99.90;;;;;;5007387;28;20386;-65
2023/02/28 08:02:23;;;;;;;8.67;2.13;;;-0.20;99.90;;;;;;5007845;28;20037;-65
2023/02/28 08:04:49;;;;;;;2.90;1.10;;;-0.20;99.90;;;;;;4981312;28;20046;-66
2023/02/28 08:07:16;;;;;;;3.03;1.40;;;-0.10;99.90;;;;;;5009234;28;20018;-65
2023/02/28 08:09:43;;;;;;;4.60;1.40;;;-0.10;99.90;;;;;;5009886;28;20102;-66
2023/02/28 08:12:09;;;;;;;2.63;1.47;;;0.00;99.90;;;;;;5003738;28;20030;-66
2023/02/28 08:14:36;;;;;;;4.23;1.10;;;0.10;99.90;;;;;;5007342;28;20435;-66
2023/02/28 08:17:02;;;;;;;6.90;1.70;;;0.20;99.90;;;;;;5005363;28;20022;-66
2023/02/28 08:19:27;;;;;;;3.50;1.63;;;0.20;99.90;;;;;;5003355;28;20072;-66
2023/02/28 08:21:54;;;;;;;2.47;1.40;;;0.20;99.90;;;;;;5011238;28;20109;-64
2023/02/28 08:24:20;;;;;;;3.27;1.40;;;0.30;99.90;;;;;;4928923;28;20482;-66
2023/02/28 08:26:45;;;;;;;3.20;1.30;;;0.40;99.80;;;;;;5015228;28;20030;-66
2023/02/28 08:29:11;;;;;;;1.65;1.17;;;0.50;99.90;;;;;;5006736;28;20087;-66
2023/02/28 08:31:36;;;;;;;1.98;1.10;;;0.70;99.80;;;;;;5011195;28;20026;-66
2023/02/28 08:34:11;;;;;;;2.20;1.55;;;0.80;99.90;;;;;;5013096;28;20026;-65
2023/02/28 08:36:37;;;;;;;2.80;1.40;;;0.90;98.60;;;;;;5009987;28;20030;-66
2023/02/28 08:39:03;;;;;;;3.58;1.50;;;1.00;98.90;;;;;;4998201;28;20053;-66
2023/02/28 08:41:29;;;;;;;3.08;1.55;;;1.00;98.20;;;;;;5010017;28;20037;-65
2023/02/28 08:43:54;;;;;;;1.33;1.20;;;1.00;98.20;;;;;;5009080;28;20536;-66
2023/02/28 08:46:20;;;;;;;3.60;1.00;;;1.10;97.40;;;;;;5008638;28;20033;-67
2023/02/28 08:48:46;;;;;;;2.72;1.08;;;1.00;98.30;;;;;;5007741;28;20038;-66
2023/02/28 08:51:18;;;;;;;2.78;1.15;;;1.10;97.60;;;;;;5008017;28;20030;-66
2023/02/28 08:53:45;;;;;;;2.85;1.00;;;1.20;97.00;;;;;;4997958;28;20397;-66
2023/02/28 08:56:16;;;;;;;2.13;1.05;;;1.30;98.70;;;;;;5008400;28;20109;-65
2023/02/28 08:58:43;;;;;;;3.35;1.00;;;1.30;95.30;;;;;;5009534;28;20109;-66
2023/02/28 09:01:17;;;;;;;3.15;1.25;;;1.30;95.90;;;;;;5008491;28;20129;-65
2023/02/28 09:03:45;;;;;;;0.80;0.70;;;1.30;94.20;;;;;;5010666;28;20114;-65
2023/02/28 09:06:12;;;;;;;2.78;1.08;;;1.40;95.40;;;;;;5006152;28;20034;-65
2023/02/28 09:08:37;;;;;;;2.78;1.23;;;1.50;95.10;;;;;;5011513;28;20034;-65
2023/02/28 09:11:03;;;;;;;1.08;0.80;;;1.60;94.80;;;;;;5005312;28;20030;-66
2023/02/28 09:13:30;;;;;;;3.47;0.95;;;1.60;94.40;;;;;;5009148;28;20032;-66
2023/02/28 09:16:01;;;;;;;0.73;0.70;;;1.70;94.20;;;;;;5011109;28;20087;-66
2023/02/28 09:18:26;;;;;;;3.03;0.77;;;1.70;94.50;;;;;;5010902;28;20025;-66
2023/02/28 09:20:52;;;;;;;1.70;0.65;;;1.70;93.80;;;;;;5009904;28;20597;-66
2023/02/28 09:23:18;;;;;;;2.90;0.80;;;1.70;94.80;;;;;;5040353;22;20049;-65
2023/02/28 09:25:52;;;;;;;3.00;0.95;;;1.80;93.70;;;;;;5019088;28;20029;-65
2023/02/28 09:28:18;;;;;;;;;;;1.90;94.40;;;;;;5027498;28;20040;-66
2023/02/28 09:30:45;;;;;;;4.07;1.50;;;2.30;94.50;;;;;;5030335;28;19908;-64
2023/02/28 09:33:12;;;;;;;1.25;0.98;;;3.20;92.40;;;;;;5029032;28;20029;-64
2023/02/28 09:35:37;;;;;;;4.57;1.45;;;3.60;91.40;;;;;;5028954;28;20036;-66
2023/02/28 09:38:04;;;;;;;3.97;1.00;;;4.40;92.00;;;;;;5033073;28;20026;-64
2023/02/28 09:40:31;;;;;;;2.97;1.10;;;4.90;88.50;;;;;;5026638;28;20583;-65
2023/02/28 09:42:59;;;;;;;2.50;1.13;;;4.90;87.50;;;;;;5027468;28;20032;-65
2023/02/28 09:45:36;;;;;;;2.95;1.00;;;5.10;87.10;;;;;;5029259;28;20104;-66
2023/02/28 09:48:06;;;;;;;2.35;1.02;;;5.20;86.60;;;;;;5030450;28;20025;-65
2023/02/28 09:50:47;;;;;;;1.85;0.90;;;5.30;84.30;;;;;;5028470;28;20032;-64
2023/02/28 09:53:22;;;;;;;1.52;0.93;;;5.10;84.40;;;;;;5028120;28;20021;-65
2023/02/28 09:56:01;;;;;;;1.85;1.10;;;5.10;85.60;;;;;;5024555;28;20026;-64
2023/02/28 09:59:05;;;;;;;7.68;0.90;;;4.90;85.70;;;;;;5008724;28;20116;-65
2023/02/28 10:01:38;;;;;;;3.50;1.07;;;4.30;86.50;;;;;;4949997;28;20059;-65
2023/02/28 10:04:27;;;;;;;2.88;1.40;;;4.40;87.40;;;;;;4948525;28;20023;-65
2023/02/28 10:06:53;;;;;;;4.70;1.20;;;4.50;87.00;;;;;;4999461;28;20092;-65
2023/02/28 10:09:23;;;;;;;3.70;1.42;;;4.80;86.50;;;;;;5024174;28;20404;-65
2023/02/28 10:11:52;;;;;;;2.45;0.90;;;4.60;84.50;;;;;;5027077;28;20017;-64
2023/02/28 10:14:29;;;;;;;4.18;1.50;;;4.70;84.80;;;;;;5022266;28;20046;-65
2023/02/28 10:17:03;;;;;;;3.80;1.80;;;4.70;85.20;;;;;;5030185;28;20400;-65
2023/02/28 10:19:38;;;;;;;2.45;1.27;;;5.00;84.00;;;;;;5028063;28;20437;-65
2023/02/28 10:22:15;;;;;;;2.20;1.10;;;5.10;84.80;;;;;;5029314;28;20076;-66
2023/02/28 10:24:51;;;;;;;3.10;1.42;;;5.00;87.10;;;;;;5010475;28;20041;-65
2023/02/28 10:27:16;;;;;;;5.68;0.95;;;5.00;84.40;;;;;;5026128;28;20377;-64
2023/02/28 10:29:54;;;;;;;2.65;1.33;;;4.50;85.60;;;;;;5024200;28;20036;-64
2023/02/28 10:32:28;;;;;;;1.92;1.00;;;4.40;86.50;;;;;;5027091;28;20066;-64
2023/02/28 10:35:14;;;;;;;3.10;1.13;;;4.40;88.10;;;;;;5007297;28;20041;-65
2023/02/28 10:37:41;;;;;;;2.22;1.30;;;4.40;85.00;;;;;;5028137;28;20797;-64
2023/02/28 10:40:37;;;;;;;2.38;1.00;;;4.50;87.00;;;;;;5028088;28;20025;-64
2023/02/28 10:43:16;;;;;;;2.17;0.82;;;4.40;84.00;;;;;;5024920;28;20072;-65
2023/02/28 10:46:03;;;;;;;5.60;1.20;;;4.40;85.10;;;;;;5015442;28;20496;-65
2023/02/28 10:48:37;;;;;;;3.83;1.02;;;4.60;84.50;;;;;;5025565;28;21102;-65
2023/02/28 10:51:09;;;;;;;2.85;1.08;;;4.60;84.00;;;;;;5026150;28;20026;-66
2023/02/28 10:53:47;;;;;;;1.52;0.88;;;4.70;82.80;;;;;;5008795;28;20032;-65
2023/02/28 10:56:16;;;;;;;3.45;1.60;;;4.60;83.30;;;;;;5026916;28;20029;-64
2023/02/28 10:59:02;;;;;;;2.80;1.30;;;4.60;82.60;;;;;;5026763;28;20053;-64
2023/02/28 11:01:54;;;;;;;2.42;0.95;;;4.50;84.90;;;;;;5028154;28;20484;-64
2023/02/28 11:04:32;;;;;;;3.38;1.48;;;4.60;84.50;;;;;;5019275;28;20044;-65
2023/02/28 11:07:04;;;;;;;2.65;1.13;;;4.60;85.40;;;;;;5015103;28;20036;-64
2023/02/28 11:09:38;;;;;;;2.42;1.17;;;4.70;85.00;;;;;;5008784;28;21367;-66
2023/02/28 11:12:20;;;;;;;4.82;1.55;;;4.60;84.30;;;;;;5028177;28;20033;-63
2023/02/28 11:15:04;;;;;;;2.63;1.02;;;4.70;84.30;;;;;;5008139;28;20030;-65
2023/02/28 11:17:32;;;;;;;2.08;0.95;;;4.60;82.50;;;;;;5028833;28;20036;-65
2023/02/28 11:20:07;;;;;;;3.67;1.52;;;4.40;83.50;;;;;;5026506;28;20401;-65
2023/02/28 11:22:40;;;;;;;4.00;2.30;;;4.50;85.20;;;;;;5025456;28;20500;-65
2023/02/28 11:25:19;;;;;;;3.28;1.40;;;4.50;84.20;;;;;;5003365;28;20049;-64
2023/02/28 11:27:49;;;;;;;4.88;1.23;;;4.30;82.50;;;;;;5027509;28;20040;-64
2023/02/28 11:30:34;;;;;;;1.40;1.08;;;4.20;85.80;;;;;;5021817;28;20609;-63
2023/02/28 11:33:01;;;;;;;2.00;1.20;;;4.30;86.30;;;;;;5024957;28;20037;-66
2023/02/28 11:35:39;;;;;;;3.40;1.40;;;4.10;83.30;;;;;;5024835;28;20071;-64
2023/02/28 11:38:12;;;;;;;3.28;1.33;;;4.10;84.50;;;;;;5019332;28;20449;-66
2023/02/28 11:40:44;;;;;;;2.45;1.20;;;4.20;84.60;;;;;;5018842;28;20101;-65
2023/02/28 11:43:34;;;;;;;2.70;1.42;;;4.10;84.50;;;;;;5031535;28;20027;-65
2023/02/28 11:46:12;;;;;;;1.65;1.10;;;4.10;84.80;;;;;;5022531;28;20092;-65
2023/02/28 11:48:56;;;;;;;3.85;1.45;;;4.10;85.00;;;;;;5016469;28;20030;-65
2023/02/28 11:51:30;;;;;;;2.17;1.38;;;4.20;85.60;;;;;;5007306;28;20037;-65
2023/02/28 11:54:08;;;;;;;1.67;1.00;;;4.20;84.10;;;;;;5023401;28;21021;-65
2023/02/28 11:56:43;;;;;;;7.30;1.30;;;4.30;83.80;;;;;;5026931;28;20034;-63
2023/02/28 11:59:08;;;;;;;3.15;1.52;;;4.30;84.10;;;;;;5008586;28;20090;-65
2023/02/28 12:01:51;;;;;;;3.35;2.03;;;4.40;85.20;;;;;;5024741;28;20025;-65
2023/02/28 12:04:36;;;;;;;4.20;1.58;;;4.40;83.50;;;;;;5030451;28;20032;-66
2023/02/28 12:07:34;;;;;;;2.17;1.25;;;4.30;83.00;;;;;;5028489;28;20021;-66
2023/02/28 12:10:08;;;;;;;3.15;1.23;;;4.30;84.40;;;;;;5031071;28;20039;-66
2023/02/28 12:12:52;;;;;;;4.03;1.27;;;4.20;82.40;;;;;;5011590;28;20067;-65
2023/02/28 12:15:44;;;;;;;4.43;1.33;;;4.30;84.40;;;;;;5015054;28;20025;-66
2023/02/28 12:18:15;;;;;;;2.38;1.20;;;4.30;84.50;;;;;;5019099;28;20045;-65
2023/02/28 12:21:01;;;;;;;1.92;1.25;;;4.40;84.30;;;;;;5031327;28;20033;-66
2023/02/28 12:23:54;;;;;;;3.38;1.30;;;4.40;85.60;;;;;;5024646;28;20515;-65
2023/02/28 12:26:43;;;;;;;3.10;1.35;;;4.40;83.80;;;;;;5023842;28;20037;-63
2023/02/28 12:29:16;;;;;;;4.70;1.30;;;4.40;83.00;;;;;;5022868;28;20060;-66
2023/02/28 12:31:56;;;;;;;3.42;1.88;;;4.30;84.80;;;;;;5025377;28;20021;-65
2023/02/28 12:34:27;;;;;;;4.43;1.52;;;4.20;84.10;;;;;;5024738;28;20032;-66
2023/02/28 12:36:56;;;;;;;1.90;1.17;;;4.30;83.60;;;;;;5012579;28;20034;-65
2023/02/28 12:39:37;;;;;;;3.28;1.50;;;4.10;84.90;;;;;;5035778;28;20552;-65
2023/02/28 12:42:11;;;;;;;4.20;1.27;;;4.20;86.20;;;;;;5029093;28;20039;-65
2023/02/28 12:44:43;;;;;;;3.93;1.27;;;4.30;86.30;;;;;;5029998;28;20038;-65
2023/02/28 12:47:15;;;;;;;2.28;1.48;;;4.40;86.20;;;;;;5013354;28;20366;-66
2023/02/28 12:50:13;;;;;;;2.60;1.33;;;4.50;86.30;;;;;;5029114;28;20083;-64
2023/02/28 12:53:02;;;;;;;4.97;2.40;;;4.40;85.50;;;;;;4974595;28;20305;-65
2023/02/28 12:55:48;;;;;;;3.72;1.80;;;4.50;86.30;;;;;;5026871;28;20025;-65
2023/02/28 12:58:39;;;;;;;3.03;1.40;;;4.50;86.40;;;;;;5025311;28;20033;-66
2023/02/28 13:01:35;;;;;;;4.03;1.85;;;4.40;85.60;;;;;;5026482;28;20033;-65
2023/02/28 13:04:23;;;;;;;2.40;1.38;;;4.40;86.10;;;;;;5027180;28;20419;-64
2023/02/28 13:07:22;;;;;;;1.90;1.30;;;4.40;85.30;;;;;;5028003;28;20032;-65
2023/02/28 13:09:54;;;;;;;3.42;1.55;;;4.30;84.00;;;;;;5024387;28;20025;-65
2023/02/28 13:12:20;;;;;;;2.72;1.48;;;4.20;84.80;;;;;;5038411;28;20504;-64